LAX weather

Los Angeles International Airport
Los Angeles, California, United States

Public forecast

Using degrees Fahrenheit for public forecast. Weather courtesy of forecast.io.

Current aviation weather report (METAR) for Los Angeles International Airport

Retrieved 2019/10/17 04:53 UTC (22 minutes ago):

KLAX 170453Z 00000KT 10SM SCT150 20/14 A2983 RMK AO2 SLP098 T02000144

Aviation forecast (TAF) for Los Angeles International Airport

Retrieved 2019-10-17 00:33 UTC (5 hours ago):

TAF KLAX 162331Z 1700/1806 27012KT P6SM BKN200 FM170400 25006KT P6SM BKN250 FM170700 VRB03KT P6SM BKN250 FM171100 VRB03KT 5SM BR OVC007 FM171500 23006KT 6SM BR BKN009 FM172000 27012KT P6SM SCT250 FM180300 28008KT P6SM SCT250